首页
METAR-TAF:

METAR-TAF

机场 :

波纳佩, 密克罗尼西亚群岛

波纳佩国际机场

纬度: 06-59N, 经度: 158-12E, 海拔: 2米

当前天气观测

该预报发布于10小时和28分钟前的02:50 UTC
风速13节,风向东转东北
温度 32°C
湿度 71%
气压 1007 hPa
能見度: 24.1公里
散云层高于1800英尺, 塔状积云.
散云层高于13000英尺
多云层高于30000英尺

METAR: PTPN 170250Z 07013KT 15SM SCT018TCU SCT130 BKN300 32/26 A2974 RMK TCU SE LAST

时间: 00:18 (13:18 UTC)

预报

该预报发布于13小时和48分钟前的23:30 UTC
预报有效从17日的 00点(UTC)到 17日的 24点(UTC)
风速6节,风向东转东南
能見度: 10公里
散云层高于1800英尺
从 17日的 0500点(UTC)
风速10节,风向
能見度: 10公里
散云层高于1800英尺
散云层高于13000英尺

TAF: PTPN 162330Z 1700/1724 12006KT P6SM SCT018 FM170500 08010KT P6SM SCT018 SCT130

超过4000个机场的气象观测和天气预报(METAR&TAF报告)。

可查询的气象台以黄色和红色小点在地图上表示。

将鼠标移到小点上方,可查看气象台名称。

然后点击查看天气观测和预报。

如需切换地图:点击带黑十字的绿色按钮放大地图;点击带横线的绿色按钮缩小地图;或者点击绿色箭头查看邻近地区的地图。


METAR-TAF: